Oregon State Flying Club

The Oregon State Flying Club is a non-profit organization committed to providing safe and inexpensive flying to the Oregon State University and Linn-Benton Community College communities. The Club currently owns three aircraft based at the Corvallis Airport for training, travel, and recreational purposes. Founded in 1952 and incorporated in 1956 the OSFC is one of the oldest continuously active flying clubs in the United States.

News & Announcements

Newsletter

The Pilot - June 2015 edition (pdf)

Monthly Board Meeting

Next Meeting: Wednesday, September 23, 6pm, at CVO

Current METAR KCVO

Raw METAR:  KCVO 271915Z 14005KT 10SM CLR 27/09 A3008 RMK AO1

This is a report for Corvallis Municipal Automatic Weather Observing / Reporting System, United States. The report was made a moment ago, at 19:15 UTC. The wind was blowing at a speed of 5.8 miles per hour (2.6 meters per second) from southeast (140°). The temperature was 81 °F (27 °C), with a dew-point at 48 °F (9 °C). The temperature felt like 80 °F (27 °C). The atmospheric pressure was 30.08 inHg (1019 hPa). The relative humidity was 32.2%. The sky was clear. The overall visibility was 10.0 miles (16.1 kilometers).